sensor_id;sensor_type;location;lat;lon;timestamp;pressure;altitude;pressure_sealevel;temperature;humidity
82458;BME280;72081;48.870;11.074;2023-11-19T00:00:56;97244.50;;;4.51;98.27
82458;BME280;72081;48.870;11.074;2023-11-19T00:03:21;97235.75;;;4.51;98.43
82458;BME280;72081;48.870;11.074;2023-11-19T00:05:46;97245.31;;;4.52;98.12
82458;BME280;72081;48.870;11.074;2023-11-19T00:08:12;97241.03;;;4.51;97.85
82458;BME280;72081;48.870;11.074;2023-11-19T00:10:37;97239.00;;;4.53;97.94
82458;BME280;72081;48.870;11.074;2023-11-19T00:13:02;97242.28;;;4.55;98.38
82458;BME280;72081;48.870;11.074;2023-11-19T00:15:28;97242.91;;;4.57;98.05
82458;BME280;72081;48.870;11.074;2023-11-19T00:17:53;97225.22;;;4.57;98.35
82458;BME280;72081;48.870;11.074;2023-11-19T00:20:19;97212.00;;;4.57;98.32
82458;BME280;72081;48.870;11.074;2023-11-19T00:22:44;97210.59;;;4.62;97.92
82458;BME280;72081;48.870;11.074;2023-11-19T00:25:13;97215.72;;;4.63;97.64
82458;BME280;72081;48.870;11.074;2023-11-19T00:27:38;97200.22;;;4.60;97.83
82458;BME280;72081;48.870;11.074;2023-11-19T00:30:05;97189.66;;;4.60;97.90
82458;BME280;72081;48.870;11.074;2023-11-19T00:32:32;97195.41;;;4.64;97.99
82458;BME280;72081;48.870;11.074;2023-11-19T00:34:57;97194.59;;;4.63;98.33
82458;BME280;72081;48.870;11.074;2023-11-19T00:37:23;97189.31;;;4.63;97.92
82458;BME280;72081;48.870;11.074;2023-11-19T00:39:48;97181.38;;;4.63;98.13
82458;BME280;72081;48.870;11.074;2023-11-19T00:42:13;97172.59;;;4.63;98.04
82458;BME280;72081;48.870;11.074;2023-11-19T00:44:39;97170.59;;;4.65;98.08
82458;BME280;72081;48.870;11.074;2023-11-19T00:47:04;97179.16;;;4.67;98.50
82458;BME280;72081;48.870;11.074;2023-11-19T00:49:30;97166.75;;;4.67;98.45
82458;BME280;72081;48.870;11.074;2023-11-19T00:51:58;97169.41;;;4.67;97.97
82458;BME280;72081;48.870;11.074;2023-11-19T00:54:24;97170.03;;;4.69;98.17
82458;BME280;72081;48.870;11.074;2023-11-19T00:56:51;97174.50;;;4.69;98.35
82458;BME280;72081;48.870;11.074;2023-11-19T00:59:17;97163.91;;;4.69;98.51
82458;BME280;72081;48.870;11.074;2023-11-19T01:01:42;97165.97;;;4.73;98.53
82458;BME280;72081;48.870;11.074;2023-11-19T01:04:08;97163.94;;;4.75;98.06
82458;BME280;72081;48.870;11.074;2023-11-19T01:06:33;97158.84;;;4.74;98.19
82458;BME280;72081;48.870;11.074;2023-11-19T01:08:59;97154.38;;;4.74;98.28
82458;BME280;72081;48.870;11.074;2023-11-19T01:11:25;97156.63;;;4.77;98.41
82458;BME280;72081;48.870;11.074;2023-11-19T01:13:51;97160.28;;;4.76;98.62
82458;BME280;72081;48.870;11.074;2023-11-19T01:16:17;97164.56;;;4.77;98.22
82458;BME280;72081;48.870;11.074;2023-11-19T01:18:42;97160.09;;;4.78;98.33
82458;BME280;72081;48.870;11.074;2023-11-19T01:21:08;97160.09;;;4.78;98.61
82458;BME280;72081;48.870;11.074;2023-11-19T01:23:34;97147.69;;;4.78;99.03
82458;BME280;72081;48.870;11.074;2023-11-19T01:25:59;97143.03;;;4.80;98.92
82458;BME280;72081;48.870;11.074;2023-11-19T01:28:24;97149.13;;;4.81;98.91
82458;BME280;72081;48.870;11.074;2023-11-19T01:30:53;97154.06;;;4.84;98.89
82458;BME280;72081;48.870;11.074;2023-11-19T01:33:18;97157.50;;;4.84;99.20
82458;BME280;72081;48.870;11.074;2023-11-19T01:35:44;97162.59;;;4.86;98.89
82458;BME280;72081;48.870;11.074;2023-11-19T01:38:09;97149.38;;;4.86;99.09
82458;BME280;72081;48.870;11.074;2023-11-19T01:40:35;97155.09;;;4.90;99.23
82458;BME280;72081;48.870;11.074;2023-11-19T01:43:02;97145.53;;;4.88;99.51
82458;BME280;72081;48.870;11.074;2023-11-19T01:45:29;97145.31;;;4.90;99.47
82458;BME280;72081;48.870;11.074;2023-11-19T01:47:59;97124.19;;;4.90;99.67
82458;BME280;72081;48.870;11.074;2023-11-19T01:50:25;97126.41;;;4.93;99.55
82458;BME280;72081;48.870;11.074;2023-11-19T01:52:54;97116.66;;;4.94;99.45
82458;BME280;72081;48.870;11.074;2023-11-19T01:55:22;97117.28;;;4.96;100.00
82458;BME280;72081;48.870;11.074;2023-11-19T01:57:49;97114.03;;;4.94;99.91
82458;BME280;72081;48.870;11.074;2023-11-19T02:00:15;97109.34;;;4.96;99.83
82458;BME280;72081;48.870;11.074;2023-11-19T02:02:41;97103.03;;;4.97;100.00
82458;BME280;72081;48.870;11.074;2023-11-19T02:05:08;97100.81;;;5.00;99.60
82458;BME280;72081;48.870;11.074;2023-11-19T02:08:24;97090.06;;;5.02;100.00
82458;BME280;72081;48.870;11.074;2023-11-19T02:10:49;97082.13;;;5.02;99.92
82458;BME280;72081;48.870;11.074;2023-11-19T02:13:15;97083.94;;;5.01;100.00
82458;BME280;72081;48.870;11.074;2023-11-19T02:15:41;97086.41;;;5.03;100.00
82458;BME280;72081;48.870;11.074;2023-11-19T02:18:23;97085.41;;;5.04;100.00
82458;BME280;72081;48.870;11.074;2023-11-19T02:20:50;97087.03;;;5.05;100.00
82458;BME280;72081;48.870;11.074;2023-11-19T02:23:16;97072.78;;;5.06;100.00
82458;BME280;72081;48.870;11.074;2023-11-19T02:25:43;97073.00;;;5.11;100.00
82458;BME280;72081;48.870;11.074;2023-11-19T02:28:12;97073.00;;;5.11;100.00
82458;BME280;72081;48.870;11.074;2023-11-19T02:30:38;97074.81;;;5.10;100.00
82458;BME280;72081;48.870;11.074;2023-11-19T02:33:03;97073.19;;;5.09;100.00
82458;BME280;72081;48.870;11.074;2023-11-19T02:35:31;97071.38;;;5.10;100.00
82458;BME280;72081;48.870;11.074;2023-11-19T02:37:57;97053.06;;;5.08;100.00
82458;BME280;72081;48.870;11.074;2023-11-19T02:40:24;97057.13;;;5.11;99.86
82458;BME280;72081;48.870;11.074;2023-11-19T02:42:50;97059.78;;;5.11;100.00
82458;BME280;72081;48.870;11.074;2023-11-19T02:45:15;97053.66;;;5.10;100.00
82458;BME280;72081;48.870;11.074;2023-11-19T02:47:41;97059.16;;;5.09;100.00
82458;BME280;72081;48.870;11.074;2023-11-19T02:50:12;97056.31;;;5.10;100.00
82458;BME280;72081;48.870;11.074;2023-11-19T02:52:43;97053.88;;;5.09;100.00
82458;BME280;72081;48.870;11.074;2023-11-19T02:55:10;97051.63;;;5.12;100.00
82458;BME280;72081;48.870;11.074;2023-11-19T02:57:38;97055.09;;;5.13;100.00
82458;BME280;72081;48.870;11.074;2023-11-19T03:00:06;97055.72;;;5.15;100.00
82458;BME280;72081;48.870;11.074;2023-11-19T03:02:39;97048.19;;;5.18;100.00
82458;BME280;72081;48.870;11.074;2023-11-19T03:05:10;97047.97;;;5.20;100.00
82458;BME280;72081;48.870;11.074;2023-11-19T03:07:36;97042.53;;;5.22;100.00
82458;BME280;72081;48.870;11.074;2023-11-19T03:10:01;97032.75;;;5.22;100.00
82458;BME280;72081;48.870;11.074;2023-11-19T03:12:27;97038.44;;;5.26;100.00
82458;BME280;72081;48.870;11.074;2023-11-19T03:14:52;97036.81;;;5.25;100.00
82458;BME280;72081;48.870;11.074;2023-11-19T03:17:17;97044.97;;;5.23;100.00
82458;BME280;72081;48.870;11.074;2023-11-19T03:19:43;97042.53;;;5.22;100.00
82458;BME280;72081;48.870;11.074;2023-11-19T03:22:09;97038.84;;;5.23;100.00
82458;BME280;72081;48.870;11.074;2023-11-19T03:24:36;97050.44;;;5.22;100.00
82458;BME280;72081;48.870;11.074;2023-11-19T03:27:01;97049.63;;;5.21;100.00
82458;BME280;72081;48.870;11.074;2023-11-19T03:29:26;97039.88;;;5.22;100.00
82458;BME280;72081;48.870;11.074;2023-11-19T03:31:53;97035.59;;;5.21;100.00
82458;BME280;72081;48.870;11.074;2023-11-19T03:34:18;97035.59;;;5.21;100.00
82458;BME280;72081;48.870;11.074;2023-11-19T03:36:44;97026.66;;;5.22;100.00
82458;BME280;72081;48.870;11.074;2023-11-19T03:39:09;97034.78;;;5.27;100.00
82458;BME280;72081;48.870;11.074;2023-11-19T03:41:34;97038.25;;;5.27;100.00
82458;BME280;72081;48.870;11.074;2023-11-19T03:44:00;97033.97;;;5.26;100.00
82458;BME280;72081;48.870;11.074;2023-11-19T03:46:25;97036.63;;;5.26;100.00
82458;BME280;72081;48.870;11.074;2023-11-19T03:48:50;97051.28;;;5.29;100.00
82458;BME280;72081;48.870;11.074;2023-11-19T03:51:16;97054.31;;;5.32;100.00
82458;BME280;72081;48.870;11.074;2023-11-19T03:53:43;97051.28;;;5.35;100.00
82458;BME280;72081;48.870;11.074;2023-11-19T03:56:09;97046.59;;;5.37;100.00
82458;BME280;72081;48.870;11.074;2023-11-19T03:58:35;97046.59;;;5.37;100.00
82458;BME280;72081;48.870;11.074;2023-11-19T04:01:01;97052.91;;;5.36;100.00
82458;BME280;72081;48.870;11.074;2023-11-19T04:03:26;97056.56;;;5.35;100.00
82458;BME280;72081;48.870;11.074;2023-11-19T04:05:51;97056.56;;;5.35;100.00
82458;BME280;72081;48.870;11.074;2023-11-19T04:08:16;97044.16;;;5.36;100.00
82458;BME280;72081;48.870;11.074;2023-11-19T04:10:42;97045.16;;;5.35;100.00
82458;BME280;72081;48.870;11.074;2023-11-19T04:13:07;97039.88;;;5.35;100.00
82458;BME280;72081;48.870;11.074;2023-11-19T04:15:32;97023.38;;;5.33;100.00
82458;BME280;72081;48.870;11.074;2023-11-19T04:17:57;97021.16;;;5.36;100.00
82458;BME280;72081;48.870;11.074;2023-11-19T04:20:23;97004.25;;;5.37;100.00
82458;BME280;72081;48.870;11.074;2023-11-19T04:22:50;96982.72;;;5.40;100.00
82458;BME280;72081;48.870;11.074;2023-11-19T04:25:16;96995.13;;;5.40;100.00
82458;BME280;72081;48.870;11.074;2023-11-19T04:27:41;97004.69;;;5.41;100.00
82458;BME280;72081;48.870;11.074;2023-11-19T04:30:07;96999.56;;;5.39;100.00
82458;BME280;72081;48.870;11.074;2023-11-19T04:32:35;97002.88;;;5.41;100.00
82458;BME280;72081;48.870;11.074;2023-11-19T04:35:01;96993.28;;;5.40;100.00
82458;BME280;72081;48.870;11.074;2023-11-19T04:37:26;96981.91;;;5.40;100.00
82458;BME280;72081;48.870;11.074;2023-11-19T04:39:51;96978.63;;;5.44;100.00
82458;BME280;72081;48.870;11.074;2023-11-19T04:42:17;96981.88;;;5.46;100.00
82458;BME280;72081;48.870;11.074;2023-11-19T04:44:43;96972.94;;;5.47;100.00
82458;BME280;72081;48.870;11.074;2023-11-19T04:47:08;96959.91;;;5.46;100.00
82458;BME280;72081;48.870;11.074;2023-11-19T04:49:40;96960.72;;;5.46;100.00
82458;BME280;72081;48.870;11.074;2023-11-19T04:52:07;96966.63;;;5.48;100.00
82458;BME280;72081;48.870;11.074;2023-11-19T04:54:33;96969.25;;;5.48;100.00
82458;BME280;72081;48.870;11.074;2023-11-19T04:57:11;96975.59;;;5.47;100.00
82458;BME280;72081;48.870;11.074;2023-11-19T04:59:36;96987.78;;;5.48;100.00
82458;BME280;72081;48.870;11.074;2023-11-19T05:02:02;96995.53;;;5.50;100.00
82458;BME280;72081;48.870;11.074;2023-11-19T05:04:29;97000.81;;;5.50;100.00
82458;BME280;72081;48.870;11.074;2023-11-19T05:06:54;97000.63;;;5.52;100.00
82458;BME280;72081;48.870;11.074;2023-11-19T05:09:19;97007.13;;;5.56;100.00
82458;BME280;72081;48.870;11.074;2023-11-19T05:11:45;97008.34;;;5.53;100.00
82458;BME280;72081;48.870;11.074;2023-11-19T05:14:10;97004.88;;;5.53;100.00
82458;BME280;72081;48.870;11.074;2023-11-19T05:16:35;97004.88;;;5.53;100.00
82458;BME280;72081;48.870;11.074;2023-11-19T05:19:00;97015.47;;;5.53;100.00
82458;BME280;72081;48.870;11.074;2023-11-19T05:21:26;97015.47;;;5.53;100.00
82458;BME280;72081;48.870;11.074;2023-11-19T05:23:51;97002.25;;;5.53;100.00
82458;BME280;72081;48.870;11.074;2023-11-19T05:26:20;97011.00;;;5.53;100.00
82458;BME280;72081;48.870;11.074;2023-11-19T05:28:46;97009.16;;;5.54;100.00
82458;BME280;72081;48.870;11.074;2023-11-19T05:31:12;97006.50;;;5.54;100.00
82458;BME280;72081;48.870;11.074;2023-11-19T05:33:37;97002.44;;;5.58;100.00
82458;BME280;72081;48.870;11.074;2023-11-19T05:36:03;97009.34;;;5.59;100.00
82458;BME280;72081;48.870;11.074;2023-11-19T05:38:29;97000.00;;;5.56;100.00
82458;BME280;72081;48.870;11.074;2023-11-19T05:40:55;97002.44;;;5.58;100.00
82458;BME280;72081;48.870;11.074;2023-11-19T05:43:20;96997.97;;;5.58;100.00
82458;BME280;72081;48.870;11.074;2023-11-19T05:45:46;96988.41;;;5.64;100.00
82458;BME280;72081;48.870;11.074;2023-11-19T05:48:11;96991.25;;;5.62;100.00
82458;BME280;72081;48.870;11.074;2023-11-19T05:50:36;96998.38;;;5.62;100.00
82458;BME280;72081;48.870;11.074;2023-11-19T05:53:02;96987.00;;;5.61;100.00
82458;BME280;72081;48.870;11.074;2023-11-19T05:55:27;96984.34;;;5.61;100.00
82458;BME280;72081;48.870;11.074;2023-11-19T05:57:53;96977.41;;;5.60;100.00
82458;BME280;72081;48.870;11.074;2023-11-19T06:00:19;96982.31;;;5.63;100.00
82458;BME280;72081;48.870;11.074;2023-11-19T06:02:44;96987.56;;;5.70;100.00
82458;BME280;72081;48.870;11.074;2023-11-19T06:05:09;96979.00;;;5.74;100.00
82458;BME280;72081;48.870;11.074;2023-11-19T06:07:35;96982.91;;;5.78;100.00
82458;BME280;72081;48.870;11.074;2023-11-19T06:10:02;96975.94;;;5.77;100.00
82458;BME280;72081;48.870;11.074;2023-11-19T06:12:28;96974.75;;;5.80;100.00
82458;BME280;72081;48.870;11.074;2023-11-19T06:14:53;96989.81;;;5.86;100.00
82458;BME280;72081;48.870;11.074;2023-11-19T06:17:18;96987.16;;;5.86;100.00
82458;BME280;72081;48.870;11.074;2023-11-19T06:19:43;96987.56;;;5.83;100.00
82458;BME280;72081;48.870;11.074;2023-11-19T06:22:10;96992.66;;;5.85;100.00
82458;BME280;72081;48.870;11.074;2023-11-19T06:24:36;96996.34;;;5.84;100.00
82458;BME280;72081;48.870;11.074;2023-11-19T06:27:01;96998.38;;;5.82;100.00
82458;BME280;72081;48.870;11.074;2023-11-19T06:29:27;96991.66;;;5.86;100.00
82458;BME280;72081;48.870;11.074;2023-11-19T06:31:52;96997.53;;;5.88;100.00
82458;BME280;72081;48.870;11.074;2023-11-19T06:34:17;96997.13;;;5.97;100.00
82458;BME280;72081;48.870;11.074;2023-11-19T06:36:43;96997.34;;;6.02;100.00
82458;BME280;72081;48.870;11.074;2023-11-19T06:39:11;96983.50;;;6.07;100.00
82458;BME280;72081;48.870;11.074;2023-11-19T06:41:36;96989.78;;;6.13;100.00
82458;BME280;72081;48.870;11.074;2023-11-19T06:44:04;96987.13;;;6.13;100.00
82458;BME280;72081;48.870;11.074;2023-11-19T06:46:30;96987.75;;;6.21;100.00
82458;BME280;72081;48.870;11.074;2023-11-19T06:48:56;96993.84;;;6.22;100.00
82458;BME280;72081;48.870;11.074;2023-11-19T06:51:22;96982.84;;;6.25;100.00
82458;BME280;72081;48.870;11.074;2023-11-19T06:53:47;96980.78;;;6.27;100.00
82458;BME280;72081;48.870;11.074;2023-11-19T06:56:23;96983.81;;;6.37;100.00
82458;BME280;72081;48.870;11.074;2023-11-19T06:58:49;96985.66;;;6.36;100.00
82458;BME280;72081;48.870;11.074;2023-11-19T07:01:18;96987.69;;;6.34;100.00
82458;BME280;72081;48.870;11.074;2023-11-19T07:03:46;96982.81;;;6.38;100.00
82458;BME280;72081;48.870;11.074;2023-11-19T07:06:12;96983.78;;;6.44;100.00
82458;BME280;72081;48.870;11.074;2023-11-19T07:08:43;96996.63;;;6.47;100.00
82458;BME280;72081;48.870;11.074;2023-11-19T07:11:10;96991.06;;;6.55;100.00
82458;BME280;72081;48.870;11.074;2023-11-19T07:13:36;96996.00;;;6.51;100.00
82458;BME280;72081;48.870;11.074;2023-11-19T07:16:02;96993.13;;;6.53;100.00
82458;BME280;72081;48.870;11.074;2023-11-19T07:18:27;97000.22;;;6.65;100.00
82458;BME280;72081;48.870;11.074;2023-11-19T07:20:53;96996.13;;;6.69;100.00
82458;BME280;72081;48.870;11.074;2023-11-19T07:23:18;96992.44;;;6.70;100.00
82458;BME280;72081;48.870;11.074;2023-11-19T07:25:44;97001.41;;;6.76;100.00
82458;BME280;72081;48.870;11.074;2023-11-19T07:28:12;97006.69;;;6.83;100.00
82458;BME280;72081;48.870;11.074;2023-11-19T07:30:38;96986.88;;;6.85;100.00
82458;BME280;72081;48.870;11.074;2023-11-19T07:33:04;96986.06;;;6.85;100.00
82458;BME280;72081;48.870;11.074;2023-11-19T07:35:29;96989.75;;;6.84;100.00
82458;BME280;72081;48.870;11.074;2023-11-19T07:37:56;96994.63;;;6.87;100.00
82458;BME280;72081;48.870;11.074;2023-11-19T07:40:21;97005.00;;;6.95;100.00
82458;BME280;72081;48.870;11.074;2023-11-19T07:42:46;97006.84;;;6.94;100.00
82458;BME280;72081;48.870;11.074;2023-11-19T07:45:59;97003.75;;;6.97;100.00
82458;BME280;72081;48.870;11.074;2023-11-19T07:48:25;97002.50;;;7.00;100.00
82458;BME280;72081;48.870;11.074;2023-11-19T07:50:52;97015.28;;;7.16;100.00
82458;BME280;72081;48.870;11.074;2023-11-19T07:53:17;97017.34;;;7.14;100.00
82458;BME280;72081;48.870;11.074;2023-11-19T07:55:43;97019.72;;;7.22;100.00
82458;BME280;72081;48.870;11.074;2023-11-19T07:58:10;97023.16;;;7.29;100.00
82458;BME280;72081;48.870;11.074;2023-11-19T08:00:35;97017.84;;;7.29;100.00
82458;BME280;72081;48.870;11.074;2023-11-19T08:03:00;97022.09;;;7.37;100.00
82458;BME280;72081;48.870;11.074;2023-11-19T08:05:25;97018.94;;;7.47;100.00
82458;BME280;72081;48.870;11.074;2023-11-19T08:07:51;97014.25;;;7.49;100.00
82458;BME280;72081;48.870;11.074;2023-11-19T08:10:18;97019.38;;;7.44;100.00
82458;BME280;72081;48.870;11.074;2023-11-19T08:12:44;97018.56;;;7.43;100.00
82458;BME280;72081;48.870;11.074;2023-11-19T08:15:09;97024.00;;;7.55;100.00
82458;BME280;72081;48.870;11.074;2023-11-19T08:17:34;97024.41;;;7.52;100.00
82458;BME280;72081;48.870;11.074;2023-11-19T08:20:00;97029.72;;;7.52;100.00
82458;BME280;72081;48.870;11.074;2023-11-19T08:22:25;97029.91;;;7.57;100.00
82458;BME280;72081;48.870;11.074;2023-11-19T08:24:50;97024.34;;;7.65;100.00
82458;BME280;72081;48.870;11.074;2023-11-19T08:27:16;97024.09;;;7.73;100.00
82458;BME280;72081;48.870;11.074;2023-11-19T08:29:41;97030.81;;;7.76;100.00
82458;BME280;72081;48.870;11.074;2023-11-19T08:32:06;97028.53;;;7.79;100.00
82458;BME280;72081;48.870;11.074;2023-11-19T08:34:32;97034.31;;;7.95;100.00
82458;BME280;72081;48.870;11.074;2023-11-19T08:36:57;97032.69;;;7.94;100.00
82458;BME280;72081;48.870;11.074;2023-11-19T08:39:22;97039.19;;;7.98;100.00
82458;BME280;72081;48.870;11.074;2023-11-19T08:41:48;97032.84;;;7.99;100.00
82458;BME280;72081;48.870;11.074;2023-11-19T08:44:13;97032.41;;;8.02;100.00
82458;BME280;72081;48.870;11.074;2023-11-19T08:46:39;97028.13;;;8.01;100.00
82458;BME280;72081;48.870;11.074;2023-11-19T08:49:05;97032.19;;;8.03;100.00
82458;BME280;72081;48.870;11.074;2023-11-19T08:51:30;97041.56;;;8.06;100.00
82458;BME280;72081;48.870;11.074;2023-11-19T08:53:56;97033.59;;;8.06;100.00
82458;BME280;72081;48.870;11.074;2023-11-19T08:56:22;97021.44;;;8.16;100.00
82458;BME280;72081;48.870;11.074;2023-11-19T08:58:47;97007.03;;;8.49;100.00
82458;BME280;72081;48.870;11.074;2023-11-19T09:01:13;97012.38;;;8.97;100.00
82458;BME280;72081;48.870;11.074;2023-11-19T09:03:38;97028.34;;;8.97;100.00
82458;BME280;72081;48.870;11.074;2023-11-19T09:06:04;97018.66;;;8.85;100.00
82458;BME280;72081;48.870;11.074;2023-11-19T09:08:29;97016.78;;;8.73;100.00
82458;BME280;72081;48.870;11.074;2023-11-19T09:10:54;97025.22;;;8.70;100.00
82458;BME280;72081;48.870;11.074;2023-11-19T09:13:19;97036.25;;;8.67;100.00
82458;BME280;72081;48.870;11.074;2023-11-19T09:15:45;97035.69;;;8.65;100.00
82458;BME280;72081;48.870;11.074;2023-11-19T09:18:10;97038.72;;;8.69;100.00
82458;BME280;72081;48.870;11.074;2023-11-19T09:20:35;97038.56;;;8.64;100.00
82458;BME280;72081;48.870;11.074;2023-11-19T09:23:04;97038.78;;;8.62;100.00
82458;BME280;72081;48.870;11.074;2023-11-19T09:25:30;97043.66;;;8.65;100.00
82458;BME280;72081;48.870;11.074;2023-11-19T09:27:55;97045.94;;;8.62;100.00
82458;BME280;72081;48.870;11.074;2023-11-19T09:30:21;97051.06;;;8.63;100.00
82458;BME280;72081;48.870;11.074;2023-11-19T09:32:46;97052.31;;;8.61;100.00
82458;BME280;72081;48.870;11.074;2023-11-19T09:35:11;97050.31;;;8.56;100.00
82458;BME280;72081;48.870;11.074;2023-11-19T09:37:38;97042.47;;;8.61;100.00
82458;BME280;72081;48.870;11.074;2023-11-19T09:40:05;97046.41;;;8.59;100.00
82458;BME280;72081;48.870;11.074;2023-11-19T09:42:41;97035.91;;;8.64;100.00
82458;BME280;72081;48.870;11.074;2023-11-19T09:45:13;97044.31;;;8.61;100.00
82458;BME280;72081;48.870;11.074;2023-11-19T09:47:40;97036.00;;;8.57;100.00
82458;BME280;72081;48.870;11.074;2023-11-19T09:50:05;97035.31;;;8.62;100.00
82458;BME280;72081;48.870;11.074;2023-11-19T09:52:31;97037.38;;;8.60;100.00
82458;BME280;72081;48.870;11.074;2023-11-19T09:54:56;97035.69;;;8.65;100.00
82458;BME280;72081;48.870;11.074;2023-11-19T09:57:22;97032.38;;;8.70;100.00
82458;BME280;72081;48.870;11.074;2023-11-19T09:59:48;97040.94;;;8.72;100.00
82458;BME280;72081;48.870;11.074;2023-11-19T10:02:14;97025.69;;;8.79;100.00
82458;BME280;72081;48.870;11.074;2023-11-19T10:04:41;97018.44;;;8.86;100.00
82458;BME280;72081;48.870;11.074;2023-11-19T10:07:07;97025.25;;;8.82;100.00
82458;BME280;72081;48.870;11.074;2023-11-19T10:09:33;97023.19;;;8.84;100.00
82458;BME280;72081;48.870;11.074;2023-11-19T10:11:58;97011.13;;;8.81;100.00
82458;BME280;72081;48.870;11.074;2023-11-19T10:14:23;97018.09;;;8.82;100.00
82458;BME280;72081;48.870;11.074;2023-11-19T10:16:49;97009.75;;;8.79;100.00
82458;BME280;72081;48.870;11.074;2023-11-19T10:19:20;97011.38;;;8.80;100.00
82458;BME280;72081;48.870;11.074;2023-11-19T10:21:46;97015.88;;;8.79;100.00
82458;BME280;72081;48.870;11.074;2023-11-19T10:24:11;96999.69;;;8.81;100.00
82458;BME280;72081;48.870;11.074;2023-11-19T10:26:37;97002.47;;;8.86;100.00
82458;BME280;72081;48.870;11.074;2023-11-19T10:29:02;97015.34;;;8.89;100.00
82458;BME280;72081;48.870;11.074;2023-11-19T10:31:27;97011.22;;;8.93;100.00
82458;BME280;72081;48.870;11.074;2023-11-19T10:34:48;97015.50;;;8.94;100.00
82458;BME280;72081;48.870;11.074;2023-11-19T10:37:29;97021.84;;;8.93;100.00
82458;BME280;72081;48.870;11.074;2023-11-19T10:39:57;97021.97;;;8.98;100.00
82458;BME280;72081;48.870;11.074;2023-11-19T10:42:23;97019.97;;;9.12;100.00
82458;BME280;72081;48.870;11.074;2023-11-19T10:44:48;97016.09;;;9.26;100.00
82458;BME280;72081;48.870;11.074;2023-11-19T10:47:15;97006.38;;;9.32;100.00
82458;BME280;72081;48.870;11.074;2023-11-19T10:49:43;97003.03;;;9.36;100.00
82458;BME280;72081;48.870;11.074;2023-11-19T10:52:09;96997.50;;;9.50;100.00
82458;BME280;72081;48.870;11.074;2023-11-19T10:54:34;96987.25;;;9.77;100.00
82458;BME280;72081;48.870;11.074;2023-11-19T10:57:01;96992.22;;;9.96;99.51
82458;BME280;72081;48.870;11.074;2023-11-19T10:59:30;96994.09;;;9.84;100.00
82458;BME280;72081;48.870;11.074;2023-11-19T11:01:56;96995.81;;;9.79;99.83
82458;BME280;72081;48.870;11.074;2023-11-19T11:04:25;96993.16;;;9.79;100.00
82458;BME280;72081;48.870;11.074;2023-11-19T11:06:54;96985.03;;;9.73;100.00
82458;BME280;72081;48.870;11.074;2023-11-19T11:09:19;96994.06;;;9.72;100.00
82458;BME280;72081;48.870;11.074;2023-11-19T11:11:47;96994.78;;;9.68;100.00
82458;BME280;72081;48.870;11.074;2023-11-19T11:14:13;96987.56;;;9.57;100.00
82458;BME280;72081;48.870;11.074;2023-11-19T11:16:46;96983.84;;;9.46;100.00
82458;BME280;72081;48.870;11.074;2023-11-19T11:19:11;96997.00;;;9.41;100.00
82458;BME280;72081;48.870;11.074;2023-11-19T11:21:39;96995.38;;;9.40;100.00
82458;BME280;72081;48.870;11.074;2023-11-19T11:24:16;96987.75;;;9.43;100.00
82458;BME280;72081;48.870;11.074;2023-11-19T11:26:59;96981.75;;;9.60;100.00
82458;BME280;72081;48.870;11.074;2023-11-19T11:29:37;96980.88;;;9.66;100.00
82458;BME280;72081;48.870;11.074;2023-11-19T11:39:35;96959.69;;;10.06;100.00
82458;BME280;72081;48.870;11.074;2023-11-19T11:50:12;96942.66;;;11.16;95.72
82458;BME280;72081;48.870;11.074;2023-11-19T11:58:11;96945.72;;;10.51;97.14
82458;BME280;72081;48.870;11.074;2023-11-19T12:00:38;96948.38;;;10.51;97.32
82458;BME280;72081;48.870;11.074;2023-11-19T12:03:05;96948.16;;;10.52;98.24
82458;BME280;72081;48.870;11.074;2023-11-19T12:05:32;96947.72;;;10.44;97.74
82458;BME280;72081;48.870;11.074;2023-11-19T12:08:06;96943.19;;;10.44;98.50
82458;BME280;72081;48.870;11.074;2023-11-19T12:10:36;96938.66;;;10.45;97.85
82458;BME280;72081;48.870;11.074;2023-11-19T12:13:06;96942.25;;;10.39;97.81
82458;BME280;72081;48.870;11.074;2023-11-19T12:15:32;96936.09;;;10.38;98.17
82458;BME280;72081;48.870;11.074;2023-11-19T12:17:57;96938.53;;;10.40;98.14
82458;BME280;72081;48.870;11.074;2023-11-19T12:20:24;96929.22;;;10.54;98.38
82458;BME280;72081;48.870;11.074;2023-11-19T12:22:50;96919.47;;;10.59;97.85
82458;BME280;72081;48.870;11.074;2023-11-19T12:25:17;96917.09;;;10.75;97.64
82458;BME280;72081;48.870;11.074;2023-11-19T12:27:48;96917.53;;;10.83;96.27
82458;BME280;72081;48.870;11.074;2023-11-19T12:30:21;96918.84;;;10.98;97.20
82458;BME280;72081;48.870;11.074;2023-11-19T12:32:46;96918.06;;;11.14;96.16
82458;BME280;72081;48.870;11.074;2023-11-19T12:35:12;96914.94;;;11.50;94.81
82458;BME280;72081;48.870;11.074;2023-11-19T12:37:48;96906.50;;;11.75;93.05
82458;BME280;72081;48.870;11.074;2023-11-19T12:40:21;96913.47;;;11.93;93.66
82458;BME280;72081;48.870;11.074;2023-11-19T12:42:53;96901.63;;;12.06;92.95
82458;BME280;72081;48.870;11.074;2023-11-19T12:45:19;96894.75;;;11.93;89.20
82458;BME280;72081;48.870;11.074;2023-11-19T12:47:47;96905.44;;;11.93;90.06
82458;BME280;72081;48.870;11.074;2023-11-19T12:50:14;96905.44;;;11.93;90.00
82458;BME280;72081;48.870;11.074;2023-11-19T12:52:39;96910.31;;;11.96;88.50
82458;BME280;72081;48.870;11.074;2023-11-19T12:55:24;96908.94;;;11.94;86.86
82458;BME280;72081;48.870;11.074;2023-11-19T12:57:50;96917.69;;;11.89;88.24
82458;BME280;72081;48.870;11.074;2023-11-19T13:00:20;96913.72;;;11.92;88.25
82458;BME280;72081;48.870;11.074;2023-11-19T13:05:24;96907.78;;;11.73;85.39
82458;BME280;72081;48.870;11.074;2023-11-19T13:07:58;96898.41;;;11.53;84.68
82458;BME280;72081;48.870;11.074;2023-11-19T13:10:25;96892.25;;;11.36;87.18
82458;BME280;72081;48.870;11.074;2023-11-19T13:13:01;96895.03;;;11.24;85.61
82458;BME280;72081;48.870;11.074;2023-11-19T13:15:26;96899.47;;;11.19;86.96